Main page
METAR-TAF:

METAR-TAF

Airports :

Gibraltar International Airport

Gibraltar, Gibraltar

latitude: 36-09N, longitude: 005-21W, elevation: 5 m

Current weather observation

The report was made 27 minutes ago, at 21:50 UTC
Wind 23 kt from the West
Temperature 14°C
Humidity 67%
Pressure 1020 hPa
Visibility 10 km or more

METAR: LXGB 222150Z AUTO 27023KT 9999 // FEW043/// BKN050/// 14/08 Q1020

Time: 23:17 (22:17 UTC)

Forecast

The report was made 5 hours and 44 minutes ago, at 16:33 UTC
Forecast valid from 22 at 18 UTC to 22 at 23 UTC
Wind 18 kt from the West with gusts up to 28 kt
Visibility 10 km or more
Few clouds at a height of 3000 ft
Becoming
from 22 at 18 UTC to 22 at 20 UTC
Wind 15 kt from the West/Southwest
Temporary
from 22 at 20 UTC to 22 at 23 UTC
Wind 15 kt from the West/Southwest with gusts up to 25 kt
Scattered clouds at a height of 1800 ft

TAF: LXGB 221633Z 2218/2223 28018G28KT 9999 FEW030 BECMG 2218/2220 25015KT TEMPO 2220/2223 25015G25KT SCT018

Weather observations and forecasts of more than 4000 airports (METAR and TAF reports).

The available stations are represented by yellow and red dots on the map.

Hover mouse over dot to see the name of the station.

Then click to see weather observations and forecasts.

To change the map : click on the green buttons with a black cross to zoom in, on the green button with a dash to zoom out, or on the green arrows for adjacent maps.


METAR-TAF: